Time;durP1;ratioP1;P1;durP2;ratioP2;P2;SDS_P1;SDS_P2;PMS_P1;PMS_P2;Temp;Humidity;BMP_temperature;BMP_pressure;BME280_temperature;BME280_humidity;BME280_pressure;Samples;Min_cycle;Max_cycle;Signal;HPM_P1;HPM_P2
2024/01/05 00:00:19;;;;;;;9.00;2.35;;;;;;;11.19;65.98;99897.97;4855514;28;123950;-74
2024/01/05 00:02:46;;;;;;;11.95;2.42;;;;;;;11.19;65.99;99887.38;4870852;28;124647;-74
2024/01/05 00:05:13;;;;;;;13.82;2.65;;;;;;;11.20;65.98;99894.38;4866956;28;114225;-74
2024/01/05 00:07:40;;;;;;;13.00;3.10;;;;;;;11.20;66.30;99897.03;4856849;28;113824;-74
2024/01/05 00:10:08;;;;;;;15.15;2.75;;;;;;;11.23;66.18;99899.50;4877670;28;124038;-74
2024/01/05 00:12:37;;;;;;;13.85;2.80;;;;;;;11.27;66.13;99906.31;4868934;28;124326;-74
2024/01/05 00:15:05;;;;;;;11.35;2.63;;;;;;;11.30;66.31;99887.53;4871481;28;113964;-74
2024/01/05 00:17:34;;;;;;;12.43;2.85;;;;;;;11.31;66.22;99881.31;4871813;28;113912;-74
2024/01/05 00:20:02;;;;;;;8.48;2.40;;;;;;;11.34;66.10;99875.81;4873508;28;124724;-74
2024/01/05 00:22:29;;;;;;;9.05;2.42;;;;;;;11.35;66.05;99866.91;4873064;28;124099;-74
2024/01/05 00:24:56;;;;;;;13.13;2.67;;;;;;;11.36;66.38;99871.28;4875012;28;114364;-74
2024/01/05 00:27:24;;;;;;;13.18;2.78;;;;;;;11.35;66.11;99861.59;4871123;28;113927;-75
2024/01/05 00:29:51;;;;;;;9.38;2.10;;;;;;;11.36;66.23;99858.00;4868627;28;124126;-74
2024/01/05 00:32:19;;;;;;;16.33;2.58;;;;;;;11.38;66.28;99856.13;4878479;28;123995;-74
2024/01/05 00:34:46;;;;;;;14.02;2.30;;;;;;;11.37;66.24;99857.03;4865887;28;114604;-74
2024/01/05 00:37:14;;;;;;;12.63;2.25;;;;;;;11.38;66.10;99856.13;4866598;28;114798;-74
2024/01/05 00:39:41;;;;;;;12.95;2.22;;;;;;;11.38;66.03;99842.84;4866123;28;123825;-74
2024/01/05 00:42:08;;;;;;;14.10;2.50;;;;;;;11.38;66.27;99850.81;4875942;28;124576;-74
2024/01/05 00:44:36;;;;;;;10.68;2.50;;;;;;;11.40;66.25;99848.91;4858474;28;112819;-74
2024/01/05 00:47:04;;;;;;;12.52;2.03;;;;;;;11.39;66.34;99841.88;4876330;28;114185;-74
2024/01/05 00:49:32;;;;;;;8.15;2.22;;;;;;;11.42;66.27;99846.16;4869152;28;124363;-74
2024/01/05 00:52:00;;;;;;;12.60;2.10;;;;;;;11.42;66.22;99831.09;4873521;28;123895;-74
2024/01/05 00:54:27;;;;;;;9.80;2.22;;;;;;;11.43;66.37;99832.81;4873351;28;114809;-74
2024/01/05 00:56:55;;;;;;;12.40;2.45;;;;;;;11.44;66.33;99834.50;4861382;28;113910;-74
2024/01/05 00:59:22;;;;;;;13.55;2.28;;;;;;;11.47;66.51;99834.31;4866124;28;124282;-74
2024/01/05 01:01:50;;;;;;;16.40;2.20;;;;;;;11.49;66.60;99829.75;4859344;28;123730;-74
2024/01/05 01:04:19;;;;;;;16.75;2.50;;;;;;;11.53;66.47;99824.22;4874694;28;113321;-74
2024/01/05 01:06:46;;;;;;;10.10;2.38;;;;;;;11.55;66.55;99828.50;4869437;28;113761;-74
2024/01/05 01:09:14;;;;;;;9.38;2.15;;;;;;;11.58;66.57;99819.50;4866703;28;124751;-74
2024/01/05 01:11:41;;;;;;;11.65;1.90;;;;;;;11.61;66.53;99819.28;4868208;28;123915;-74
2024/01/05 01:14:09;;;;;;;12.38;2.22;;;;;;;11.64;66.48;99813.78;4859566;28;114597;-74
2024/01/05 01:16:36;;;;;;;10.07;2.20;;;;;;;11.66;66.58;99807.44;4870627;28;113177;-74
2024/01/05 01:19:03;;;;;;;10.05;2.30;;;;;;;11.69;66.65;99816.97;4867185;28;124092;-73
2024/01/05 01:21:31;;;;;;;10.57;2.40;;;;;;;11.72;66.59;99806.19;4870339;28;123987;-73
2024/01/05 01:24:00;;;;;;;9.52;2.00;;;;;;;11.74;66.46;99809.56;4865707;28;115244;-74
2024/01/05 01:26:27;;;;;;;10.27;2.30;;;;;;;11.76;66.42;99802.34;4873342;28;115122;-73
2024/01/05 01:28:54;;;;;;;12.15;2.40;;;;;;;11.79;66.58;99807.47;4869965;28;123875;-74
2024/01/05 01:31:22;;;;;;;12.07;2.38;;;;;;;11.80;66.53;99803.84;4873487;28;122829;-73
2024/01/05 01:33:50;;;;;;;8.40;1.55;;;;;;;11.81;66.38;99796.72;4866634;28;114609;-73
2024/01/05 01:36:18;;;;;;;8.70;2.30;;;;;;;11.81;66.28;99804.69;4874344;28;113814;-73
2024/01/05 01:38:45;;;;;;;8.30;2.40;;;;;;;11.82;66.44;99801.94;4872733;28;124529;-73
2024/01/05 01:41:12;;;;;;;10.98;2.22;;;;;;;11.83;66.44;99800.16;4866717;28;123726;-73
2024/01/05 01:43:46;;;;;;;12.75;2.22;;;;;;;11.84;66.42;99805.34;4873868;28;114645;-73
2024/01/05 01:46:20;;;;;;;14.82;2.47;;;;;;;11.86;66.48;99802.59;4873895;28;114628;-73
2024/01/05 01:48:47;;;;;;;7.95;1.90;;;;;;;11.86;66.41;99803.44;4873835;28;124951;-73
2024/01/05 01:51:15;;;;;;;10.70;2.10;;;;;;;11.87;66.37;99794.53;4867939;28;123782;-73
2024/01/05 01:53:44;;;;;;;6.57;2.03;;;;;;;11.89;66.52;99791.78;4871855;28;114641;-73
2024/01/05 01:56:13;;;;;;;9.20;1.73;;;;;;;11.91;66.27;99789.06;4871609;28;114603;-73
2024/01/05 01:58:42;;;;;;;9.75;2.28;;;;;;;11.90;66.27;99779.38;4861947;28;124066;-73
2024/01/05 02:01:11;;;;;;;9.07;1.90;;;;;;;11.91;66.30;99783.75;4865988;28;123424;-73
2024/01/05 02:03:39;;;;;;;11.63;2.05;;;;;;;11.90;66.08;99782.03;4872502;28;114588;-73
2024/01/05 02:06:06;;;;;;;7.25;1.83;;;;;;;11.92;66.32;99777.47;4866490;28;114754;-73
2024/01/05 02:08:34;;;;;;;8.95;2.30;;;;;;;11.93;66.07;99765.94;4865223;28;124076;-73
2024/01/05 02:11:01;;;;;;;9.75;2.15;;;;;;;11.93;66.17;99765.94;4864545;28;125210;-73
2024/01/05 02:13:28;;;;;;;8.20;1.80;;;;;;;11.93;66.09;99755.31;4861504;28;114992;-73
2024/01/05 02:15:56;;;;;;;12.23;1.92;;;;;;;11.94;66.13;99743.72;4858926;28;114591;-73
2024/01/05 02:18:23;;;;;;;7.20;2.00;;;;;;;11.94;66.09;99751.69;4864802;28;123652;-72
2024/01/05 02:20:50;;;;;;;10.50;1.83;;;;;;;11.94;66.34;99747.25;4867147;28;123683;-73
2024/01/05 02:23:22;;;;;;;6.38;1.42;;;;;;;11.95;66.09;99745.44;4864053;28;114255;-73
2024/01/05 02:25:49;;;;;;;10.90;1.95;;;;;;;11.94;65.96;99741.06;4865520;28;113901;-73
2024/01/05 02:28:18;;;;;;;10.75;2.08;;;;;;;11.97;66.08;99735.56;4871015;28;124352;-73
2024/01/05 02:30:46;;;;;;;14.77;1.90;;;;;;;11.95;66.07;99732.16;4867687;28;123832;-73
2024/01/05 02:33:13;;;;;;;6.70;2.10;;;;;;;11.95;65.96;99724.22;4869587;28;114215;-73
2024/01/05 02:35:41;;;;;;;8.88;2.10;;;;;;;11.96;66.03;99717.94;4872555;28;112999;-73
2024/01/05 02:38:08;;;;;;;7.70;2.05;;;;;;;11.96;65.91;99717.94;4865789;28;124461;-73
2024/01/05 02:40:35;;;;;;;7.00;2.08;;;;;;;11.95;65.94;99716.25;4872148;28;124125;-73
2024/01/05 02:43:03;;;;;;;8.65;2.00;;;;;;;11.94;65.82;99714.53;4871575;28;114568;-73
2024/01/05 02:45:31;;;;;;;8.45;1.90;;;;;;;11.94;65.80;99709.22;4868108;28;113828;-73
2024/01/05 02:47:59;;;;;;;5.65;1.80;;;;;;;11.92;65.74;99700.53;4875611;28;124340;-73
2024/01/05 02:50:27;;;;;;;8.15;1.80;;;;;;;11.90;65.68;99691.84;4876072;28;122958;-73
2024/01/05 02:52:54;;;;;;;7.30;2.15;;;;;;;11.87;65.54;99693.72;4871795;28;114387;-73
2024/01/05 02:55:21;;;;;;;9.88;2.20;;;;;;;11.86;65.74;99691.16;4884026;28;113288;-74
2024/01/05 02:57:48;;;;;;;7.25;1.90;;;;;;;11.84;65.80;99680.66;4872524;28;123820;-73
2024/01/05 03:00:16;;;;;;;9.50;2.00;;;;;;;11.84;65.60;99690.41;4874911;28;123792;-73
2024/01/05 03:02:43;;;;;;;7.07;2.20;;;;;;;11.82;65.73;99690.50;4874511;28;115273;-73
2024/01/05 03:05:11;;;;;;;11.55;2.08;;;;;;;11.81;65.57;99682.66;4873656;28;115130;-73
2024/01/05 03:07:40;;;;;;;8.43;2.20;;;;;;;11.80;65.67;99675.66;4872351;28;124043;-73
2024/01/05 03:10:08;;;;;;;8.85;2.03;;;;;;;11.77;65.60;99671.44;4869162;28;124762;-73
2024/01/05 03:12:35;;;;;;;5.88;1.98;;;;;;;11.75;65.53;99668.00;4875884;28;114340;-73
2024/01/05 03:15:03;;;;;;;8.30;1.90;;;;;;;11.74;65.67;99666.34;4867144;28;114361;-73
2024/01/05 03:17:30;;;;;;;8.80;2.17;;;;;;;11.72;65.42;99657.63;4873423;28;123767;-73
2024/01/05 03:19:58;;;;;;;6.93;2.13;;;;;;;11.71;65.52;99661.22;4875875;28;123792;-73
2024/01/05 03:22:25;;;;;;;11.02;2.40;;;;;;;11.69;65.52;99658.69;4876235;28;113117;-72
2024/01/05 03:24:56;;;;;;;12.00;2.17;;;;;;;11.68;65.74;99658.81;4869028;28;113911;-73
2024/01/05 03:27:23;;;;;;;8.57;2.20;;;;;;;11.66;65.53;99642.16;4869594;28;124320;-73
2024/01/05 03:29:51;;;;;;;10.35;1.98;;;;;;;11.65;65.57;99641.28;4870072;28;124286;-73
2024/01/05 03:32:18;;;;;;;7.38;2.08;;;;;;;11.64;65.66;99646.69;4865600;28;115117;-73
2024/01/05 03:34:46;;;;;;;9.07;2.05;;;;;;;11.63;65.65;99637.06;4871612;28;113199;-73
2024/01/05 03:37:13;;;;;;;8.13;2.28;;;;;;;11.62;65.52;99630.03;4864095;28;124104;-73
2024/01/05 03:39:40;;;;;;;11.32;2.20;;;;;;;11.62;65.47;99630.03;4868883;28;123858;-73
2024/01/05 03:42:07;;;;;;;8.07;2.03;;;;;;;11.62;65.50;99630.03;4877216;28;115619;-72
2024/01/05 03:44:35;;;;;;;8.32;2.38;;;;;;;11.63;65.67;99626.44;4873723;28;114322;-72
2024/01/05 03:47:02;;;;;;;8.40;1.98;;;;;;;11.62;65.38;99624.72;4871189;28;123144;-73
2024/01/05 03:49:30;;;;;;;7.53;2.03;;;;;;;11.62;65.46;99619.44;4864965;28;124717;-73
2024/01/05 03:51:57;;;;;;;10.07;1.73;;;;;;;11.63;65.44;99615.84;4868346;28;115437;-72
2024/01/05 03:54:24;;;;;;;11.50;1.98;;;;;;;11.62;65.46;99609.69;4867934;28;115016;-72
2024/01/05 03:56:51;;;;;;;7.47;1.80;;;;;;;11.63;65.41;99605.22;4872187;28;124573;-72
2024/01/05 03:59:19;;;;;;;7.97;2.00;;;;;;;11.63;65.50;99597.28;4866303;28;124300;-72
2024/01/05 04:01:49;;;;;;;10.48;2.13;;;;;;;11.62;65.24;99595.56;4872361;28;114682;-73
2024/01/05 04:04:16;;;;;;;8.90;2.00;;;;;;;11.61;65.31;99591.22;4871378;28;113375;-73
2024/01/05 04:06:45;;;;;;;6.88;2.03;;;;;;;11.61;65.39;99580.63;4868493;28;123762;-73
2024/01/05 04:09:13;;;;;;;5.30;1.40;;;;;;;11.61;65.18;99585.91;4868847;28;123858;-73
2024/01/05 04:11:40;;;;;;;6.15;1.80;;;;;;;11.59;65.27;99582.53;4866161;28;114190;-73
2024/01/05 04:14:08;;;;;;;6.57;1.42;;;;;;;11.57;65.11;99576.50;4870983;28;114327;-73
2024/01/05 04:16:35;;;;;;;6.43;1.90;;;;;;;11.56;65.30;99572.13;4870805;28;122835;-73
2024/01/05 04:19:02;;;;;;;11.00;1.95;;;;;;;11.54;65.04;99568.72;4868228;28;124059;-73
2024/01/05 04:21:30;;;;;;;5.22;1.70;;;;;;;11.52;65.11;99568.00;4862382;28;114600;-72
2024/01/05 04:23:58;;;;;;;7.03;2.03;;;;;;;11.50;64.73;99568.94;4872585;28;113990;-73
2024/01/05 04:26:26;;;;;;;10.00;2.20;;;;;;;11.49;64.95;99561.94;4871158;28;122875;-73
2024/01/05 04:28:53;;;;;;;7.68;1.90;;;;;;;11.48;65.24;99560.25;4871621;28;124307;-73
2024/01/05 04:31:20;;;;;;;6.07;1.67;;;;;;;11.48;64.98;99560.25;4866033;28;114265;-73
2024/01/05 04:33:48;;;;;;;6.55;1.45;;;;;;;11.47;64.99;99558.56;4871438;28;113811;-73
2024/01/05 04:36:16;;;;;;;6.40;1.77;;;;;;;11.46;65.03;99551.56;4869490;28;124031;-73
2024/01/05 04:38:44;;;;;;;7.05;1.77;;;;;;;11.46;64.91;99556.84;4871139;28;124091;-73
2024/01/05 04:41:13;;;;;;;8.50;1.85;;;;;;;11.44;64.84;99550.81;4856254;28;115866;-73
2024/01/05 04:43:41;;;;;;;8.98;1.92;;;;;;;11.44;64.87;99536.72;4867656;28;114210;-73
2024/01/05 04:46:08;;;;;;;5.85;1.42;;;;;;;11.43;64.95;99541.19;4866731;28;123541;-73
2024/01/05 04:48:36;;;;;;;6.72;1.77;;;;;;;11.44;64.94;99542.84;4870528;28;122793;-73
2024/01/05 04:51:04;;;;;;;5.72;1.77;;;;;;;11.45;65.00;99535.75;4873079;28;113688;-73
2024/01/05 04:53:31;;;;;;;8.65;1.40;;;;;;;11.43;64.95;99533.22;4873401;28;112879;-72
2024/01/05 04:55:59;;;;;;;7.47;1.60;;;;;;;11.43;65.02;99530.56;4863334;28;124326;-72
2024/01/05 04:58:26;;;;;;;6.47;1.75;;;;;;;11.43;64.86;99530.56;4874199;28;122782;-72
2024/01/05 05:00:55;;;;;;;9.52;1.60;;;;;;;11.42;64.95;99523.56;4873512;28;113391;-72
2024/01/05 05:03:23;;;;;;;11.30;1.67;;;;;;;11.41;64.97;99521.84;4865229;28;112901;-72
2024/01/05 05:05:51;;;;;;;7.75;1.50;;;;;;;11.42;64.83;99517.41;4867470;28;123028;-72
2024/01/05 05:08:18;;;;;;;5.82;1.58;;;;;;;11.42;64.74;99518.25;4868769;28;124528;-70
2024/01/05 05:10:46;;;;;;;6.78;1.40;;;;;;;11.43;64.93;99519.97;4873646;28;114384;-70
2024/01/05 05:13:13;;;;;;;5.20;1.30;;;;;;;11.44;64.80;99507.56;4873539;28;112641;-71
2024/01/05 05:15:41;;;;;;;5.20;1.55;;;;;;;11.44;64.71;99504.91;4872992;28;123973;-71
2024/01/05 05:18:09;;;;;;;6.93;1.52;;;;;;;11.44;64.77;99495.13;4871504;28;124187;-71
2024/01/05 05:20:37;;;;;;;9.82;1.40;;;;;;;11.43;64.81;99498.75;4851066;28;113300;-71
2024/01/05 05:23:04;;;;;;;5.25;1.20;;;;;;;11.44;64.85;99489.84;4864417;28;113996;-73
2024/01/05 05:25:32;;;;;;;5.47;1.63;;;;;;;11.44;64.79;99500.44;4862751;28;124284;-71
2024/01/05 05:27:59;;;;;;;6.82;1.30;;;;;;;11.45;64.70;99499.50;4876429;28;122811;-71
2024/01/05 05:30:26;;;;;;;7.25;1.30;;;;;;;11.44;64.63;99484.53;4870946;28;115519;-71
2024/01/05 05:32:53;;;;;;;9.88;1.58;;;;;;;11.45;64.53;99473.00;4870366;28;114231;-71
2024/01/05 05:35:22;;;;;;;5.20;1.35;;;;;;;11.48;64.59;99479.88;4863320;28;125091;-71
2024/01/05 05:37:49;;;;;;;4.80;1.33;;;;;;;11.47;65.15;99473.72;4873573;28;124174;-70
2024/01/05 05:40:17;;;;;;;7.07;1.40;;;;;;;11.48;64.56;99470.09;4867819;28;114042;-71
2024/01/05 05:42:44;;;;;;;4.50;1.10;;;;;;;11.52;64.57;99475.19;4866877;28;114755;-71
2024/01/05 05:45:12;;;;;;;5.75;1.30;;;;;;;11.53;64.65;99476.88;4869517;28;123045;-71
2024/01/05 05:47:39;;;;;;;6.75;1.40;;;;;;;11.55;64.52;99469.69;4870456;28;124591;-71
2024/01/05 05:50:07;;;;;;;4.45;1.10;;;;;;;11.55;64.30;99469.69;4872059;28;114029;-71
2024/01/05 05:52:34;;;;;;;7.05;1.42;;;;;;;11.56;64.52;99460.75;4871581;28;113938;-71
2024/01/05 05:55:03;;;;;;;7.30;1.52;;;;;;;11.56;64.34;99466.06;4867113;28;123840;-71
2024/01/05 05:57:31;;;;;;;3.90;1.10;;;;;;;11.58;64.38;99469.44;4872519;28;123963;-71
2024/01/05 05:59:59;;;;;;;6.88;1.30;;;;;;;11.58;64.45;99469.44;4872360;28;114812;-71
2024/01/05 06:02:26;;;;;;;6.72;1.30;;;;;;;11.58;64.42;99469.44;4861677;28;114418;-72
2024/01/05 06:04:54;;;;;;;6.30;1.50;;;;;;;11.59;64.48;99465.84;4866560;28;125167;-71
2024/01/05 06:07:23;;;;;;;8.23;1.80;;;;;;;11.58;64.44;99475.59;4866810;28;122973;-71
2024/01/05 06:09:51;;;;;;;4.97;1.20;;;;;;;11.61;64.19;99474.53;4869514;28;113377;-71
2024/01/05 06:12:18;;;;;;;7.85;1.55;;;;;;;11.62;64.30;99471.78;4861201;28;113817;-72
2024/01/05 06:14:46;;;;;;;7.35;1.55;;;;;;;11.63;64.27;99472.63;4872023;28;122950;-71
2024/01/05 06:17:13;;;;;;;3.58;0.93;;;;;;;11.65;64.17;99476.00;4868076;28;124442;-71
2024/01/05 06:19:40;;;;;;;5.85;1.58;;;;;;;11.66;64.20;99475.91;4867815;28;115314;-72
2024/01/05 06:22:08;;;;;;;9.40;1.70;;;;;;;11.67;64.16;99474.09;4863510;28;115498;-72
2024/01/05 06:24:35;;;;;;;4.97;1.25;;;;;;;11.69;63.82;99477.47;4863964;28;123861;-72
2024/01/05 06:27:02;;;;;;;6.55;1.35;;;;;;;11.69;64.11;99472.19;4872552;28;122985;-71
2024/01/05 06:29:30;;;;;;;6.50;1.42;;;;;;;11.69;64.04;99472.19;4861260;28;114299;-71
2024/01/05 06:31:57;;;;;;;4.85;1.25;;;;;;;11.71;64.09;99470.25;4871247;28;114301;-71
2024/01/05 06:34:24;;;;;;;6.85;1.45;;;;;;;11.74;63.96;99480.66;4865297;28;123652;-71
2024/01/05 06:36:53;;;;;;;4.75;1.38;;;;;;;11.75;63.96;99471.72;4871100;28;123822;-71
2024/01/05 06:39:20;;;;;;;5.80;1.15;;;;;;;11.78;63.88;99474.16;4861968;28;114119;-71
2024/01/05 06:41:47;;;;;;;3.80;1.02;;;;;;;11.80;64.01;99471.41;4868360;28;114106;-71
2024/01/05 06:44:15;;;;;;;3.33;1.02;;;;;;;11.83;63.93;99469.38;4871793;28;123520;-71
2024/01/05 06:46:42;;;;;;;6.63;1.27;;;;;;;11.86;63.85;99468.31;4866870;28;124822;-71
2024/01/05 06:49:10;;;;;;;5.72;1.10;;;;;;;11.91;63.76;99475.97;4859962;28;113991;-71
2024/01/05 06:51:38;;;;;;;6.13;1.42;;;;;;;11.94;63.72;99470.44;4865256;28;113823;-71
2024/01/05 06:54:06;;;;;;;3.33;0.95;;;;;;;11.96;63.64;99468.50;4862724;28;123884;-71
2024/01/05 06:56:36;;;;;;;5.00;1.05;;;;;;;11.98;63.44;99471.91;4870044;28;124168;-71
2024/01/05 06:59:04;;;;;;;2.80;0.70;;;;;;;11.99;63.43;99478.91;4854278;28;114176;-72
2024/01/05 07:01:32;;;;;;;3.58;0.93;;;;;;;11.99;63.20;99473.59;4881258;28;113153;-73
2024/01/05 07:04:00;;;;;;;2.65;0.90;;;;;;;11.99;62.97;99468.31;4871146;28;123403;-74
2024/01/05 07:06:28;;;;;;;5.07;0.68;;;;;;;12.00;62.77;99475.31;4865668;28;123070;-73
2024/01/05 07:08:55;;;;;;;1.17;0.52;;;;;;;12.00;62.44;99475.31;4867276;28;114224;-73
2024/01/05 07:11:24;;;;;;;2.70;0.60;;;;;;;12.01;62.29;99479.66;4857146;28;113813;-73
2024/01/05 07:13:51;;;;;;;1.60;0.50;;;;;;;12.02;62.09;99481.34;4874588;28;124258;-73
2024/01/05 07:16:20;;;;;;;1.92;0.60;;;;;;;12.02;61.90;99479.53;4865528;28;124074;-73
2024/01/05 07:18:48;;;;;;;2.28;0.70;;;;;;;12.04;61.72;99476.78;4872019;28;113052;-73
2024/01/05 07:21:16;;;;;;;2.15;0.63;;;;;;;12.04;61.49;99482.09;4870034;28;114011;-73
2024/01/05 07:23:44;;;;;;;1.98;0.50;;;;;;;12.03;61.33;99475.06;4871253;28;123605;-73
2024/01/05 07:26:11;;;;;;;2.75;0.50;;;;;;;12.03;61.07;99485.69;4872390;28;124502;-73
2024/01/05 07:28:39;;;;;;;0.80;0.50;;;;;;;12.00;60.92;99488.59;4870004;28;114637;-76
2024/01/05 07:31:09;;;;;;;2.50;0.57;;;;;;;11.99;60.69;99489.53;4869488;28;114062;-73
2024/01/05 07:33:39;;;;;;;1.38;0.50;;;;;;;11.97;60.60;99491.44;4869317;28;124147;-73
2024/01/05 07:36:06;;;;;;;1.77;0.40;;;;;;;11.96;60.60;99500.34;4873351;28;123663;-74
2024/01/05 07:38:37;;;;;;;0.63;0.43;;;;;;;11.94;60.45;99491.66;4874064;28;115035;-74
2024/01/05 07:41:04;;;;;;;1.90;0.80;;;;;;;11.92;60.23;99493.59;4873331;28;114233;-73
2024/01/05 07:43:32;;;;;;;1.75;0.38;;;;;;;11.88;60.11;99491.13;4869828;28;123298;-74
2024/01/05 07:46:02;;;;;;;0.73;0.30;;;;;;;11.86;60.17;99495.69;4862952;28;124803;-74
2024/01/05 07:48:30;;;;;;;0.40;0.35;;;;;;;11.85;60.27;99487.84;4869238;28;112982;-74
2024/01/05 07:50:58;;;;;;;0.30;0.30;;;;;;;11.82;60.37;99488.91;4851106;28;112392;-73
2024/01/05 07:53:25;;;;;;;0.55;0.30;;;;;;;11.81;60.40;99497.84;4870471;28;124601;-73
2024/01/05 07:55:52;;;;;;;1.55;0.40;;;;;;;11.80;60.33;99501.44;4874498;28;123666;-75
2024/01/05 07:58:19;;;;;;;0.32;0.32;;;;;;;11.78;60.39;99492.75;4866468;28;115370;-73
2024/01/05 08:00:47;;;;;;;0.30;0.30;;;;;;;11.77;60.22;99501.69;4874520;28;114596;-73
2024/01/05 08:03:14;;;;;;;1.35;0.40;;;;;;;11.74;60.18;99488.63;4870826;28;123057;-74
2024/01/05 08:05:42;;;;;;;0.60;0.40;;;;;;;11.74;60.23;99491.28;4864004;28;123951;-73
2024/01/05 08:08:14;;;;;;;0.80;0.38;;;;;;;11.75;60.35;99492.94;4872989;28;114277;-75
2024/01/05 08:10:42;;;;;;;0.30;0.30;;;;;;;11.72;60.13;99498.50;4872174;28;113157;-73
2024/01/05 08:13:09;;;;;;;0.98;0.40;;;;;;;11.72;60.23;99493.19;4872284;28;123067;-73
2024/01/05 08:15:37;;;;;;;0.43;0.40;;;;;;;11.69;60.13;99493.41;4870693;28;123915;-74
2024/01/05 08:18:06;;;;;;;0.32;0.30;;;;;;;11.68;60.13;99497.03;4868052;28;114356;-74
2024/01/05 08:20:33;;;;;;;0.80;0.40;;;;;;;11.66;60.16;99498.94;4864300;28;114017;-74
2024/01/05 08:23:01;;;;;;;1.05;0.50;;;;;;;11.66;60.31;99488.34;4858596;28;124053;-75
2024/01/05 08:25:29;;;;;;;1.50;0.50;;;;;;;11.65;60.08;99491.94;4868129;28;124005;-74
2024/01/05 08:27:56;;;;;;;0.28;0.28;;;;;;;11.62;60.13;99487.69;4864225;28;114538;-74
2024/01/05 08:30:24;;;;;;;0.30;0.30;;;;;;;11.61;60.03;99486.00;4870580;28;114992;-74
2024/01/05 08:32:54;;;;;;;0.88;0.30;;;;;;;11.59;60.12;99481.75;4867208;28;124688;-74
2024/01/05 08:35:22;;;;;;;0.65;0.30;;;;;;;11.58;60.29;99480.06;4873067;28;122964;-74
2024/01/05 08:37:50;;;;;;;0.40;0.30;;;;;;;11.55;60.29;99480.28;4870990;28;113674;-74
2024/01/05 08:40:18;;;;;;;0.90;0.40;;;;;;;11.54;60.27;99478.59;4874631;28;114379;-74
2024/01/05 08:42:45;;;;;;;0.82;0.30;;;;;;;11.51;60.25;99474.34;4867358;28;122973;-74
2024/01/05 08:45:18;;;;;;;0.60;0.40;;;;;;;11.48;60.39;99472.75;4874713;28;124245;-74
2024/01/05 08:47:45;;;;;;;1.08;0.30;;;;;;;11.47;60.45;99465.78;4874808;28;115648;-74
2024/01/05 08:50:13;;;;;;;0.30;0.30;;;;;;;11.45;60.43;99470.34;4871729;28;114905;-74
2024/01/05 08:52:40;;;;;;;2.60;0.47;;;;;;;11.43;60.43;99477.56;4859643;28;124086;-74
2024/01/05 08:55:07;;;;;;;1.55;0.40;;;;;;;11.39;60.56;99476.06;4884770;28;123094;-74
2024/01/05 08:57:35;;;;;;;0.60;0.40;;;;;;;11.37;60.39;99472.66;4858309;28;114092;-74
2024/01/05 09:00:03;;;;;;;0.38;0.38;;;;;;;11.36;60.67;99484.25;4857047;28;113181;-74
2024/01/05 09:02:31;;;;;;;1.17;0.40;;;;;;;11.34;60.48;99480.84;4855268;28;124744;-73
2024/01/05 09:04:58;;;;;;;0.60;0.40;;;;;;;11.30;60.32;99482.88;4868971;28;123116;-74
2024/01/05 09:07:26;;;;;;;1.23;0.40;;;;;;;11.29;60.42;99496.22;4856351;28;114468;-74
2024/01/05 09:09:56;;;;;;;0.85;0.50;;;;;;;11.28;60.51;99499.81;4875885;28;113655;-74
2024/01/05 09:12:24;;;;;;;1.10;0.40;;;;;;;11.28;60.45;99495.38;4860913;28;124388;-74
2024/01/05 09:14:51;;;;;;;1.33;0.43;;;;;;;11.28;60.52;99494.50;4862056;28;124883;-74
2024/01/05 09:17:19;;;;;;;0.55;0.30;;;;;;;11.25;60.58;99494.75;4873403;28;113400;-73
2024/01/05 09:19:48;;;;;;;0.98;0.38;;;;;;;11.22;60.54;99501.09;4880420;28;111921;-74
2024/01/05 09:22:15;;;;;;;0.90;0.30;;;;;;;11.21;60.47;99514.47;4872746;28;124584;-74
2024/01/05 09:24:42;;;;;;;0.73;0.30;;;;;;;11.16;60.47;99521.88;4877182;28;123970;-75
2024/01/05 09:27:10;;;;;;;0.75;0.40;;;;;;;11.13;60.39;99530.88;4869180;28;115977;-75
2024/01/05 09:29:37;;;;;;;1.15;0.30;;;;;;;11.07;60.44;99534.78;4865876;28;114116;-75
2024/01/05 09:32:05;;;;;;;0.80;0.30;;;;;;;11.00;60.57;99528.22;4872336;28;124701;-74
2024/01/05 09:34:33;;;;;;;1.15;0.40;;;;;;;10.95;60.59;99535.63;4870952;28;123915;-75
2024/01/05 09:37:01;;;;;;;1.73;0.40;;;;;;;10.90;60.88;99543.03;4870887;28;115316;-75
2024/01/05 09:39:28;;;;;;;1.55;0.50;;;;;;;10.86;60.77;99541.53;4874630;28;115108;-75
2024/01/05 09:41:56;;;;;;;0.40;0.30;;;;;;;10.81;60.89;99538.34;4876442;28;124422;-75
2024/01/05 09:44:24;;;;;;;0.50;0.40;;;;;;;10.75;60.85;99544.06;4871136;28;123364;-75
2024/01/05 09:46:52;;;;;;;0.30;0.30;;;;;;;10.68;60.92;99552.41;4876799;28;114026;-76
2024/01/05 09:49:21;;;;;;;0.30;0.30;;;;;;;10.63;61.02;99551.88;4876801;28;113899;-75
2024/01/05 09:51:52;;;;;;;0.20;0.20;;;;;;;10.58;61.18;99548.66;4874218;28;123443;-75
2024/01/05 09:54:19;;;;;;;0.70;0.32;;;;;;;10.54;60.95;99552.47;4882558;28;124216;-75
2024/01/05 09:56:47;;;;;;;0.43;0.35;;;;;;;10.50;61.17;99548.34;4867725;28;114405;-75
2024/01/05 09:59:17;;;;;;;1.80;0.50;;;;;;;10.46;61.21;99549.50;4877693;28;113057;-75
2024/01/05 10:01:49;;;;;;;1.00;0.55;;;;;;;10.42;61.35;99548.00;4866953;28;123487;-74
2024/01/05 10:04:19;;;;;;;2.15;0.50;;;;;;;10.40;61.30;99544.59;4872064;28;123545;-75
2024/01/05 10:06:58;;;;;;;1.90;0.40;;;;;;;10.36;61.46;99533.38;4862397;28;114410;-75
2024/01/05 10:09:25;;;;;;;0.68;0.38;;;;;;;10.36;61.66;99537.78;4869912;28;113206;-75
2024/01/05 10:11:54;;;;;;;0.77;0.50;;;;;;;10.33;61.71;99534.41;4870503;28;124165;-75
2024/01/05 10:14:25;;;;;;;1.83;0.50;;;;;;;10.33;61.73;99533.56;4871085;28;125466;-74
2024/01/05 10:17:13;;;;;;;0.40;0.40;;;;;;;10.31;61.86;99533.66;4867926;28;114362;-74
2024/01/05 10:19:43;;;;;;;0.73;0.40;;;;;;;10.32;61.93;99527.44;4871530;28;114260;-74
2024/01/05 10:22:12;;;;;;;0.98;0.45;;;;;;;10.32;61.75;99519.47;4867273;28;124881;-75
2024/01/05 10:24:42;;;;;;;1.73;0.50;;;;;;;10.35;61.81;99530.81;4876055;28;123820;-74
2024/01/05 10:27:13;;;;;;;1.17;0.52;;;;;;;10.37;62.02;99528.91;4866694;28;115597;-74
2024/01/05 10:29:43;;;;;;;0.80;0.50;;;;;;;10.37;61.91;99535.06;4870440;28;115085;-74
2024/01/05 10:32:16;;;;;;;0.75;0.50;;;;;;;10.40;61.98;99536.66;4872582;28;124339;-74
2024/01/05 10:34:49;;;;;;;1.67;0.50;;;;;;;10.41;62.00;99538.34;4868932;28;123466;-74
2024/01/05 10:37:19;;;;;;;1.25;0.60;;;;;;;10.44;62.12;99540.81;4872648;28;113535;-74
2024/01/05 10:39:48;;;;;;;3.50;0.70;;;;;;;10.45;62.07;99539.84;4869581;28;114678;-75
2024/01/05 10:42:27;;;;;;;1.73;0.70;;;;;;;10.46;62.37;99523.88;4874907;28;123549;-74
2024/01/05 10:44:57;;;;;;;1.88;0.68;;;;;;;10.50;62.25;99530.66;4863970;28;123807;-75
2024/01/05 10:47:31;;;;;;;1.70;0.52;;;;;;;10.54;62.33;99536.59;4865230;28;114306;-74
2024/01/05 10:49:59;;;;;;;1.13;0.50;;;;;;;10.57;61.98;99536.41;4863719;28;114694;-74
2024/01/05 10:52:30;;;;;;;1.33;0.73;;;;;;;10.60;62.23;99536.19;4873433;28;123134;-75
2024/01/05 10:55:03;;;;;;;1.45;0.63;;;;;;;10.63;62.19;99541.28;4872564;28;123674;-74
2024/01/05 10:57:35;;;;;;;1.88;0.60;;;;;;;10.66;62.26;99535.78;4867817;28;113933;-74
2024/01/05 11:00:06;;;;;;;2.03;0.60;;;;;;;10.73;62.20;99540.66;4876419;28;114842;-74
2024/01/05 11:02:40;;;;;;;1.60;0.70;;;;;;;10.75;62.26;99538.78;4876188;28;124528;-74
2024/01/05 11:05:13;;;;;;;0.77;0.50;;;;;;;10.77;61.93;99532.41;4869751;28;124454;-75
2024/01/05 11:07:42;;;;;;;1.15;0.65;;;;;;;10.79;62.19;99530.50;4869751;28;113316;-74
2024/01/05 11:10:20;;;;;;;4.07;0.63;;;;;;;10.79;62.03;99534.97;4869993;28;114387;-74
2024/01/05 11:13:12;;;;;;;1.08;0.60;;;;;;;10.81;62.08;99535.69;4887077;28;124700;-74
2024/01/05 11:15:56;;;;;;;0.80;0.60;;;;;;;10.81;62.27;99541.00;4868224;28;124487;-74
2024/01/05 11:18:24;;;;;;;0.50;0.50;;;;;;;10.83;62.07;99547.03;4868468;28;114740;-74
2024/01/05 11:21:32;;;;;;;1.52;0.68;;;;;;;10.83;61.80;99533.78;4876853;28;114700;-74
2024/01/05 11:24:00;;;;;;;1.67;0.50;;;;;;;10.84;62.00;99539.00;4870349;28;123088;-74
2024/01/05 11:26:35;;;;;;;2.97;0.90;;;;;;;10.84;61.85;99532.84;4873723;28;123943;-74
2024/01/05 11:29:10;;;;;;;1.00;0.77;;;;;;;10.83;61.70;99541.75;4871446;28;114609;-74